sensor_id;sensor_type;location;lat;lon;timestamp;pressure;altitude;pressure_sealevel;temperature;humidity
14041;BME280;7095;51.388;6.196;2023-05-20T00:01:50;53680.03;;;-145.32;100.00
14041;BME280;7095;51.388;6.196;2023-05-20T00:04:20;53664.13;;;-145.32;100.00
14041;BME280;7095;51.388;6.196;2023-05-20T00:06:49;53642.25;;;-145.32;100.00
14041;BME280;7095;51.388;6.196;2023-05-20T00:09:18;53628.31;;;-145.32;100.00
14041;BME280;7095;51.388;6.196;2023-05-20T00:11:46;53628.31;;;-145.32;100.00
14041;BME280;7095;51.388;6.196;2023-05-20T00:14:15;53648.22;;;-145.32;100.00
14041;BME280;7095;51.388;6.196;2023-05-20T00:16:43;53626.34;;;-145.32;100.00
14041;BME280;7095;51.388;6.196;2023-05-20T00:19:12;53642.25;;;-145.32;100.00
14041;BME280;7095;51.388;6.196;2023-05-20T00:21:42;53654.19;;;-145.32;100.00
14041;BME280;7095;51.388;6.196;2023-05-20T00:24:10;53650.19;;;-145.32;100.00
14041;BME280;7095;51.388;6.196;2023-05-20T00:26:39;53646.22;;;-145.32;100.00
14041;BME280;7095;51.388;6.196;2023-05-20T00:29:07;53628.31;;;-145.32;100.00
14041;BME280;7095;51.388;6.196;2023-05-20T00:31:36;53652.19;;;-145.32;100.00
14041;BME280;7095;51.388;6.196;2023-05-20T00:34:05;53632.31;;;-145.32;100.00
14041;BME280;7095;51.388;6.196;2023-05-20T00:36:33;53634.28;;;-145.32;100.00
14041;BME280;7095;51.388;6.196;2023-05-20T00:39:04;53650.19;;;-145.32;100.00
14041;BME280;7095;51.388;6.196;2023-05-20T00:41:32;53650.19;;;-145.32;100.00
14041;BME280;7095;51.388;6.196;2023-05-20T00:44:01;53658.16;;;-145.32;100.00
14041;BME280;7095;51.388;6.196;2023-05-20T00:46:30;53654.19;;;-145.32;100.00
14041;BME280;7095;51.388;6.196;2023-05-20T00:48:58;53662.13;;;-145.32;100.00
14041;BME280;7095;51.388;6.196;2023-05-20T00:51:27;53654.19;;;-145.32;100.00
14041;BME280;7095;51.388;6.196;2023-05-20T00:53:57;53689.97;;;-145.32;100.00
14041;BME280;7095;51.388;6.196;2023-05-20T00:56:27;53697.91;;;-145.32;100.00
14041;BME280;7095;51.388;6.196;2023-05-20T00:58:56;53691.94;;;-145.32;100.00
14041;BME280;7095;51.388;6.196;2023-05-20T01:01:26;53719.78;;;-145.32;100.00
14041;BME280;7095;51.388;6.196;2023-05-20T01:03:55;53697.91;;;-145.32;100.00
14041;BME280;7095;51.388;6.196;2023-05-20T01:06:23;53695.94;;;-145.32;100.00
14041;BME280;7095;51.388;6.196;2023-05-20T01:08:52;53737.69;;;-145.32;100.00
14041;BME280;7095;51.388;6.196;2023-05-20T01:11:24;53721.78;;;-145.32;100.00
14041;BME280;7095;51.388;6.196;2023-05-20T01:13:58;53717.78;;;-145.32;100.00
14041;BME280;7095;51.388;6.196;2023-05-20T01:16:29;53731.72;;;-145.32;100.00
14041;BME280;7095;51.388;6.196;2023-05-20T01:19:01;53745.63;;;-145.32;100.00
14041;BME280;7095;51.388;6.196;2023-05-20T01:21:31;53757.56;;;-145.32;100.00
14041;BME280;7095;51.388;6.196;2023-05-20T01:24:02;53785.41;;;-145.32;100.00
14041;BME280;7095;51.388;6.196;2023-05-20T01:26:32;53733.69;;;-145.32;100.00
14041;BME280;7095;51.388;6.196;2023-05-20T01:29:04;53813.22;;;-145.32;100.00
14041;BME280;7095;51.388;6.196;2023-05-20T01:31:36;53779.44;;;-145.32;100.00
14041;BME280;7095;51.388;6.196;2023-05-20T01:34:06;53803.28;;;-145.32;100.00
14041;BME280;7095;51.388;6.196;2023-05-20T01:36:35;53789.38;;;-145.32;100.00
14041;BME280;7095;51.388;6.196;2023-05-20T01:39:05;53807.25;;;-145.32;100.00
14041;BME280;7095;51.388;6.196;2023-05-20T01:41:34;53829.13;;;-145.32;100.00
14041;BME280;7095;51.388;6.196;2023-05-20T01:44:03;53888.78;;;-145.32;100.00
14041;BME280;7095;51.388;6.196;2023-05-20T01:46:32;53860.94;;;-145.32;100.00
14041;BME280;7095;51.388;6.196;2023-05-20T01:49:01;53904.69;;;-145.32;100.00
14041;BME280;7095;51.388;6.196;2023-05-20T01:51:30;53918.59;;;-145.32;100.00
14041;BME280;7095;51.388;6.196;2023-05-20T01:54:02;53958.38;;;-145.32;100.00
14041;BME280;7095;51.388;6.196;2023-05-20T01:56:33;53910.66;;;-145.32;100.00
14041;BME280;7095;51.388;6.196;2023-05-20T01:59:02;53946.44;;;-145.32;100.00
14041;BME280;7095;51.388;6.196;2023-05-20T02:01:31;53978.25;;;-145.32;100.00
14041;BME280;7095;51.388;6.196;2023-05-20T02:03:59;53986.22;;;-145.32;100.00
14041;BME280;7095;51.388;6.196;2023-05-20T02:06:29;54014.06;;;-145.32;100.00
14041;BME280;7095;51.388;6.196;2023-05-20T02:08:58;54035.91;;;-145.32;100.00
14041;BME280;7095;51.388;6.196;2023-05-20T02:11:26;54002.13;;;-145.32;100.00
14041;BME280;7095;51.388;6.196;2023-05-20T02:13:56;54063.75;;;-145.32;100.00
14041;BME280;7095;51.388;6.196;2023-05-20T02:16:25;54063.75;;;-145.32;100.00
14041;BME280;7095;51.388;6.196;2023-05-20T02:18:53;54087.63;;;-145.32;100.00
14041;BME280;7095;51.388;6.196;2023-05-20T02:21:25;54087.63;;;-145.32;100.00
14041;BME280;7095;51.388;6.196;2023-05-20T02:23:53;54127.38;;;-145.32;100.00
14041;BME280;7095;51.388;6.196;2023-05-20T02:26:22;54127.38;;;-145.32;100.00
14041;BME280;7095;51.388;6.196;2023-05-20T02:28:51;54165.16;;;-145.32;100.00
14041;BME280;7095;51.388;6.196;2023-05-20T02:31:22;54187.03;;;-145.32;100.00
14041;BME280;7095;51.388;6.196;2023-05-20T02:33:52;54191.03;;;-145.32;100.00
14041;BME280;7095;51.388;6.196;2023-05-20T02:36:20;54232.78;;;-145.32;100.00
14041;BME280;7095;51.388;6.196;2023-05-20T02:38:49;54226.81;;;-145.32;100.00
14041;BME280;7095;51.388;6.196;2023-05-20T02:41:20;54264.59;;;-145.32;100.00
14041;BME280;7095;51.388;6.196;2023-05-20T02:43:49;54286.47;;;-145.32;100.00
14041;BME280;7095;51.388;6.196;2023-05-20T02:46:17;54302.38;;;-145.32;100.00
14041;BME280;7095;51.388;6.196;2023-05-20T02:48:47;54294.41;;;-145.32;100.00
14041;BME280;7095;51.388;6.196;2023-05-20T02:51:16;54316.28;;;-145.32;100.00
14041;BME280;7095;51.388;6.196;2023-05-20T02:53:45;54340.16;;;-145.32;100.00
14041;BME280;7095;51.388;6.196;2023-05-20T02:56:14;54344.13;;;-145.32;100.00
14041;BME280;7095;51.388;6.196;2023-05-20T02:58:42;54342.16;;;-145.32;100.00
14041;BME280;7095;51.388;6.196;2023-05-20T03:01:11;54369.97;;;-145.32;100.00
14041;BME280;7095;51.388;6.196;2023-05-20T03:03:41;54373.97;;;-145.32;100.00
14041;BME280;7095;51.388;6.196;2023-05-20T03:06:11;54389.88;;;-145.32;100.00
14041;BME280;7095;51.388;6.196;2023-05-20T03:08:39;54457.47;;;-145.32;100.00
14041;BME280;7095;51.388;6.196;2023-05-20T03:11:08;54419.69;;;-145.32;100.00
14041;BME280;7095;51.388;6.196;2023-05-20T03:13:37;54451.53;;;-145.32;100.00
14041;BME280;7095;51.388;6.196;2023-05-20T03:16:06;54503.22;;;-145.32;100.00
14041;BME280;7095;51.388;6.196;2023-05-20T03:18:36;54544.97;;;-145.32;100.00
14041;BME280;7095;51.388;6.196;2023-05-20T03:21:04;54612.59;;;-145.32;100.00
14041;BME280;7095;51.388;6.196;2023-05-20T03:23:34;54708.06;;;-145.32;100.00
14041;BME280;7095;51.388;6.196;2023-05-20T03:26:04;54716.00;;;-145.32;100.00
14041;BME280;7095;51.388;6.196;2023-05-20T03:28:33;54871.16;;;-145.32;100.00
14041;BME280;7095;51.388;6.196;2023-05-20T03:31:02;54954.69;;;-145.32;100.00
14041;BME280;7095;51.388;6.196;2023-05-20T03:33:33;54972.56;;;-145.32;100.00
14041;BME280;7095;51.388;6.196;2023-05-20T03:36:03;55078.00;;;-145.32;100.00
14041;BME280;7095;51.388;6.196;2023-05-20T03:38:32;55169.50;;;-145.32;100.00
14041;BME280;7095;51.388;6.196;2023-05-20T03:41:02;55203.31;;;-145.32;100.00
14041;BME280;7095;51.388;6.196;2023-05-20T03:43:32;55221.19;;;-145.32;100.00
14041;BME280;7095;51.388;6.196;2023-05-20T03:46:00;55316.69;;;-145.32;100.00
14041;BME280;7095;51.388;6.196;2023-05-20T03:48:29;55372.38;;;-145.32;100.00
14041;BME280;7095;51.388;6.196;2023-05-20T03:50:58;55436.03;;;-145.32;100.00
14041;BME280;7095;51.388;6.196;2023-05-20T03:53:28;55547.44;;;-145.32;100.00
14041;BME280;7095;51.388;6.196;2023-05-20T03:55:57;55656.84;;;-145.32;100.00
14041;BME280;7095;51.388;6.196;2023-05-20T03:58:26;55776.19;;;-145.32;100.00
14041;BME280;7095;51.388;6.196;2023-05-20T04:00:57;55863.72;;;-145.32;100.00
14041;BME280;7095;51.388;6.196;2023-05-20T04:03:26;55963.22;;;-145.32;100.00
14041;BME280;7095;51.388;6.196;2023-05-20T04:05:55;55937.34;;;-145.32;100.00
14041;BME280;7095;51.388;6.196;2023-05-20T04:08:24;56078.59;;;-145.32;100.00
14041;BME280;7095;51.388;6.196;2023-05-20T04:10:55;56227.81;;;-145.32;100.00
14041;BME280;7095;51.388;6.196;2023-05-20T04:13:24;56247.72;;;-145.32;100.00
14041;BME280;7095;51.388;6.196;2023-05-20T04:15:54;56349.19;;;-145.32;100.00
14041;BME280;7095;51.388;6.196;2023-05-20T04:18:23;56450.66;;;-145.32;100.00
14041;BME280;7095;51.388;6.196;2023-05-20T04:20:53;56532.25;;;-145.32;100.00
14041;BME280;7095;51.388;6.196;2023-05-20T04:23:22;56416.84;;;-145.32;100.00
14041;BME280;7095;51.388;6.196;2023-05-20T04:25:50;56615.81;;;-145.32;100.00
14041;BME280;7095;51.388;6.196;2023-05-20T04:28:19;56635.72;;;-145.32;100.00
14041;BME280;7095;51.388;6.196;2023-05-20T04:30:58;56621.78;;;-145.32;100.00
14041;BME280;7095;51.388;6.196;2023-05-20T04:33:29;56790.94;;;-145.32;100.00
14041;BME280;7095;51.388;6.196;2023-05-20T04:35:59;56920.28;;;-145.32;100.00
14041;BME280;7095;51.388;6.196;2023-05-20T04:38:32;57121.28;;;-145.32;100.00
14041;BME280;7095;51.388;6.196;2023-05-20T04:41:00;57131.25;;;-145.32;100.00
14041;BME280;7095;51.388;6.196;2023-05-20T04:43:30;57234.75;;;-145.32;100.00
14041;BME280;7095;51.388;6.196;2023-05-20T04:46:01;57306.38;;;-145.32;100.00
14041;BME280;7095;51.388;6.196;2023-05-20T04:48:33;57473.56;;;-145.32;100.00
14041;BME280;7095;51.388;6.196;2023-05-20T04:51:02;57672.63;;;-145.32;100.00
14041;BME280;7095;51.388;6.196;2023-05-20T04:53:30;57847.78;;;-145.32;100.00
14041;BME280;7095;51.388;6.196;2023-05-20T04:56:00;57738.31;;;-145.32;100.00
14041;BME280;7095;51.388;6.196;2023-05-20T04:58:30;57624.84;;;-145.32;100.00
14041;BME280;7095;51.388;6.196;2023-05-20T05:01:01;57439.75;;;-145.32;100.00
14041;BME280;7095;51.388;6.196;2023-05-20T05:03:30;57364.09;;;-145.32;100.00
14041;BME280;7095;51.388;6.196;2023-05-20T05:06:02;57423.81;;;-145.32;100.00
14041;BME280;7095;51.388;6.196;2023-05-20T05:08:31;57188.97;;;-145.32;100.00
14041;BME280;7095;51.388;6.196;2023-05-20T05:11:00;57037.72;;;-145.32;100.00
14041;BME280;7095;51.388;6.196;2023-05-20T05:13:28;56948.16;;;-145.32;100.00
14041;BME280;7095;51.388;6.196;2023-05-20T05:15:58;56840.69;;;-145.32;100.00
14041;BME280;7095;51.388;6.196;2023-05-20T05:18:30;56717.31;;;-145.32;100.00
14041;BME280;7095;51.388;6.196;2023-05-20T05:21:00;56426.78;;;-145.32;100.00
14041;BME280;7095;51.388;6.196;2023-05-20T05:23:29;56355.16;;;-145.32;100.00
14041;BME280;7095;51.388;6.196;2023-05-20T05:25:58;56291.50;;;-145.32;100.00
14041;BME280;7095;51.388;6.196;2023-05-20T05:28:27;56132.31;;;-145.32;100.00
14041;BME280;7095;51.388;6.196;2023-05-20T05:30:58;55997.03;;;-145.32;100.00
14041;BME280;7095;51.388;6.196;2023-05-20T05:33:29;55816.00;;;-145.32;100.00
14041;BME280;7095;51.388;6.196;2023-05-20T05:35:58;55662.81;;;-145.32;100.00
14041;BME280;7095;51.388;6.196;2023-05-20T05:38:28;55563.34;;;-145.32;100.00
14041;BME280;7095;51.388;6.196;2023-05-20T05:40:57;55396.25;;;-145.32;100.00
14041;BME280;7095;51.388;6.196;2023-05-20T05:43:26;55342.53;;;-145.32;100.00
14041;BME280;7095;51.388;6.196;2023-05-20T05:45:55;55294.78;;;-145.32;100.00
14041;BME280;7095;51.388;6.196;2023-05-20T05:48:24;55151.59;;;-145.32;100.00
14041;BME280;7095;51.388;6.196;2023-05-20T05:50:54;55101.84;;;-145.32;100.00
14041;BME280;7095;51.388;6.196;2023-05-20T05:53:24;54954.69;;;-145.32;100.00
14041;BME280;7095;51.388;6.196;2023-05-20T05:55:53;54906.94;;;-145.32;100.00
14041;BME280;7095;51.388;6.196;2023-05-20T05:58:22;54803.53;;;-145.32;100.00
14041;BME280;7095;51.388;6.196;2023-05-20T06:00:51;54843.28;;;-145.32;100.00
14041;BME280;7095;51.388;6.196;2023-05-20T06:03:21;54757.78;;;-145.32;100.00
14041;BME280;7095;51.388;6.196;2023-05-20T06:05:51;54694.13;;;-145.32;100.00
14041;BME280;7095;51.388;6.196;2023-05-20T06:08:21;54642.44;;;-145.32;100.00
14041;BME280;7095;51.388;6.196;2023-05-20T06:10:50;54584.75;;;-145.32;100.00
14041;BME280;7095;51.388;6.196;2023-05-20T06:13:19;54539.03;;;-145.32;100.00
14041;BME280;7095;51.388;6.196;2023-05-20T06:15:48;54505.22;;;-145.32;100.00
14041;BME280;7095;51.388;6.196;2023-05-20T06:18:17;54469.41;;;-145.32;100.00
14041;BME280;7095;51.388;6.196;2023-05-20T06:20:46;54421.69;;;-145.32;100.00
14041;BME280;7095;51.388;6.196;2023-05-20T06:23:15;54338.16;;;-145.32;100.00
14041;BME280;7095;51.388;6.196;2023-05-20T06:25:58;54318.28;;;-145.32;100.00
14041;BME280;7095;51.388;6.196;2023-05-20T06:28:28;54292.44;;;-145.32;100.00
14041;BME280;7095;51.388;6.196;2023-05-20T06:30:57;54216.88;;;-145.32;100.00
14041;BME280;7095;51.388;6.196;2023-05-20T06:33:29;54167.16;;;-145.32;100.00
14041;BME280;7095;51.388;6.196;2023-05-20T06:36:02;54111.47;;;-145.32;100.00
14041;BME280;7095;51.388;6.196;2023-05-20T06:38:31;54119.44;;;-145.32;100.00
14041;BME280;7095;51.388;6.196;2023-05-20T06:41:02;54107.50;;;-145.32;100.00
14041;BME280;7095;51.388;6.196;2023-05-20T06:43:32;54047.84;;;-145.32;100.00
14041;BME280;7095;51.388;6.196;2023-05-20T06:46:08;54010.06;;;-145.32;100.00
14041;BME280;7095;51.388;6.196;2023-05-20T06:48:42;53984.22;;;-145.32;100.00
14041;BME280;7095;51.388;6.196;2023-05-20T06:51:10;53952.41;;;-145.32;100.00
14041;BME280;7095;51.388;6.196;2023-05-20T06:53:40;53872.88;;;-145.32;100.00
14041;BME280;7095;51.388;6.196;2023-05-20T06:56:10;53856.97;;;-145.32;100.00
14041;BME280;7095;51.388;6.196;2023-05-20T06:58:39;53821.19;;;-145.32;100.00
14041;BME280;7095;51.388;6.196;2023-05-20T07:01:08;53833.13;;;-145.32;100.00
14041;BME280;7095;51.388;6.196;2023-05-20T07:03:37;53785.41;;;-145.32;100.00
14041;BME280;7095;51.388;6.196;2023-05-20T07:06:10;53797.31;;;-145.32;100.00
14041;BME280;7095;51.388;6.196;2023-05-20T07:08:38;53749.59;;;-145.32;100.00
14041;BME280;7095;51.388;6.196;2023-05-20T07:11:09;53761.53;;;-145.32;100.00
14041;BME280;7095;51.388;6.196;2023-05-20T07:13:38;53745.63;;;-145.32;100.00
14041;BME280;7095;51.388;6.196;2023-05-20T07:16:06;53717.78;;;-145.32;100.00
14041;BME280;7095;51.388;6.196;2023-05-20T07:18:38;53703.88;;;-145.32;100.00
14041;BME280;7095;51.388;6.196;2023-05-20T07:21:06;53717.78;;;-145.32;100.00
14041;BME280;7095;51.388;6.196;2023-05-20T07:23:58;53717.78;;;-145.32;100.00
14041;BME280;7095;51.388;6.196;2023-05-20T07:26:28;53666.09;;;-145.32;100.00
14041;BME280;7095;51.388;6.196;2023-05-20T07:28:59;53674.06;;;-145.32;100.00
14041;BME280;7095;51.388;6.196;2023-05-20T07:31:28;53701.88;;;-145.32;100.00
14041;BME280;7095;51.388;6.196;2023-05-20T07:33:58;53652.19;;;-145.32;100.00
14041;BME280;7095;51.388;6.196;2023-05-20T07:36:27;53682.00;;;-145.32;100.00
14041;BME280;7095;51.388;6.196;2023-05-20T07:39:01;53630.31;;;-145.32;100.00
14041;BME280;7095;51.388;6.196;2023-05-20T07:41:37;53632.31;;;-145.32;100.00
14041;BME280;7095;51.388;6.196;2023-05-20T07:44:06;53638.28;;;-145.32;100.00
14041;BME280;7095;51.388;6.196;2023-05-20T07:46:39;53630.31;;;-145.32;100.00
14041;BME280;7095;51.388;6.196;2023-05-20T07:49:10;53602.47;;;-145.32;100.00
14041;BME280;7095;51.388;6.196;2023-05-20T07:51:39;53618.38;;;-145.32;100.00
14041;BME280;7095;51.388;6.196;2023-05-20T07:54:08;53618.38;;;-145.32;100.00
14041;BME280;7095;51.388;6.196;2023-05-20T07:56:38;53598.50;;;-145.32;100.00
14041;BME280;7095;51.388;6.196;2023-05-20T07:59:09;53578.63;;;-145.32;100.00
14041;BME280;7095;51.388;6.196;2023-05-20T08:01:43;53610.44;;;-145.32;100.00
14041;BME280;7095;51.388;6.196;2023-05-20T08:04:15;53590.56;;;-145.32;100.00
14041;BME280;7095;51.388;6.196;2023-05-20T08:06:45;53578.63;;;-145.32;100.00
14041;BME280;7095;51.388;6.196;2023-05-20T08:09:21;53578.63;;;-145.32;100.00
14041;BME280;7095;51.388;6.196;2023-05-20T08:11:54;53558.75;;;-145.32;99.70
14041;BME280;7095;51.388;6.196;2023-05-20T08:14:23;53530.91;;;-145.32;99.20
14041;BME280;7095;51.388;6.196;2023-05-20T08:16:53;53566.69;;;-145.32;97.97
14041;BME280;7095;51.388;6.196;2023-05-20T08:19:22;53544.81;;;-145.32;98.01
14041;BME280;7095;51.388;6.196;2023-05-20T08:21:51;53528.94;;;-145.32;97.05
14041;BME280;7095;51.388;6.196;2023-05-20T08:24:20;53517.00;;;-145.32;97.04
14041;BME280;7095;51.388;6.196;2023-05-20T08:26:49;53536.88;;;-145.32;95.33
14041;BME280;7095;51.388;6.196;2023-05-20T08:29:22;53497.13;;;-145.32;94.00
14041;BME280;7095;51.388;6.196;2023-05-20T08:31:51;53499.09;;;-145.32;94.00
14041;BME280;7095;51.388;6.196;2023-05-20T08:34:20;53499.09;;;-145.32;95.38
14041;BME280;7095;51.388;6.196;2023-05-20T08:36:50;53479.22;;;-145.32;94.76
14041;BME280;7095;51.388;6.196;2023-05-20T08:39:18;53475.25;;;-145.32;90.41
14041;BME280;7095;51.388;6.196;2023-05-20T08:41:48;53475.25;;;-145.32;89.14
14041;BME280;7095;51.388;6.196;2023-05-20T08:44:18;53489.16;;;-145.32;88.28
14041;BME280;7095;51.388;6.196;2023-05-20T08:46:50;53477.22;;;-145.32;88.92
14041;BME280;7095;51.388;6.196;2023-05-20T08:49:20;53427.53;;;-145.32;86.48
14041;BME280;7095;51.388;6.196;2023-05-20T08:51:48;53439.47;;;-145.32;86.25
14041;BME280;7095;51.388;6.196;2023-05-20T08:54:17;53423.56;;;-145.32;85.11
14041;BME280;7095;51.388;6.196;2023-05-20T08:56:50;53431.50;;;-145.32;84.70
14041;BME280;7095;51.388;6.196;2023-05-20T08:59:22;53441.44;;;-145.32;83.30
14041;BME280;7095;51.388;6.196;2023-05-20T09:01:52;53439.47;;;-145.32;80.16
14041;BME280;7095;51.388;6.196;2023-05-20T09:04:21;53423.56;;;-145.32;79.11
14041;BME280;7095;51.388;6.196;2023-05-20T09:06:50;53399.69;;;-145.32;78.55
14041;BME280;7095;51.388;6.196;2023-05-20T09:09:19;53399.69;;;-145.32;77.55
14041;BME280;7095;51.388;6.196;2023-05-20T09:11:48;53413.63;;;-145.32;76.74
14041;BME280;7095;51.388;6.196;2023-05-20T09:14:16;53365.91;;;-145.32;76.52
14041;BME280;7095;51.388;6.196;2023-05-20T09:16:46;53403.69;;;-145.32;76.60
14041;BME280;7095;51.388;6.196;2023-05-20T09:19:17;53399.69;;;-145.32;75.63
14041;BME280;7095;51.388;6.196;2023-05-20T09:21:52;53353.97;;;-145.32;74.18
14041;BME280;7095;51.388;6.196;2023-05-20T09:24:25;53367.91;;;-145.32;71.47
14041;BME280;7095;51.388;6.196;2023-05-20T09:26:53;53369.88;;;-145.32;72.96
14041;BME280;7095;51.388;6.196;2023-05-20T09:29:22;53361.94;;;-145.32;71.76
14041;BME280;7095;51.388;6.196;2023-05-20T09:31:51;53324.16;;;-145.32;71.20
14041;BME280;7095;51.388;6.196;2023-05-20T09:34:21;53352.00;;;-145.32;68.53
14041;BME280;7095;51.388;6.196;2023-05-20T09:36:50;53371.88;;;-145.32;69.13
14041;BME280;7095;51.388;6.196;2023-05-20T09:39:24;53308.25;;;-145.32;68.84
14041;BME280;7095;51.388;6.196;2023-05-20T09:42:01;53304.28;;;-145.32;65.94
14041;BME280;7095;51.388;6.196;2023-05-20T09:44:34;53312.22;;;-145.32;67.17
14041;BME280;7095;51.388;6.196;2023-05-20T09:47:04;53312.22;;;-145.32;66.34
14041;BME280;7095;51.388;6.196;2023-05-20T09:49:37;53348.00;;;-145.32;64.69
14041;BME280;7095;51.388;6.196;2023-05-20T09:52:07;53344.03;;;-145.32;66.56
14041;BME280;7095;51.388;6.196;2023-05-20T09:54:36;53328.13;;;-145.32;66.11
14041;BME280;7095;51.388;6.196;2023-05-20T09:57:06;53350.00;;;-145.32;65.07
14041;BME280;7095;51.388;6.196;2023-05-20T09:59:36;53324.16;;;-145.32;66.17
14041;BME280;7095;51.388;6.196;2023-05-20T10:02:05;53352.00;;;-145.32;65.44
14041;BME280;7095;51.388;6.196;2023-05-20T10:04:37;53338.06;;;-145.32;64.84
14041;BME280;7095;51.388;6.196;2023-05-20T10:07:44;53316.22;;;-145.32;63.61
14041;BME280;7095;51.388;6.196;2023-05-20T10:10:39;53348.00;;;-145.32;66.28
14041;BME280;7095;51.388;6.196;2023-05-20T10:13:18;53296.31;;;-145.32;65.15
14041;BME280;7095;51.388;6.196;2023-05-20T10:16:12;53272.47;;;-145.32;64.11
14041;BME280;7095;51.388;6.196;2023-05-20T10:18:54;53282.41;;;-145.32;63.68
14041;BME280;7095;51.388;6.196;2023-05-20T10:21:25;53310.25;;;-145.32;64.30
14041;BME280;7095;51.388;6.196;2023-05-20T10:24:04;53320.19;;;-145.32;61.69
14041;BME280;7095;51.388;6.196;2023-05-20T10:26:35;53316.22;;;-145.32;63.57
14041;BME280;7095;51.388;6.196;2023-05-20T10:29:14;53282.41;;;-145.32;62.06
14041;BME280;7095;51.388;6.196;2023-05-20T10:31:43;53288.38;;;-145.32;63.40
14041;BME280;7095;51.388;6.196;2023-05-20T10:34:17;53304.28;;;-145.32;61.93
14041;BME280;7095;51.388;6.196;2023-05-20T10:36:57;53292.34;;;-145.32;59.95
14041;BME280;7095;51.388;6.196;2023-05-20T10:39:27;53278.44;;;-145.32;61.80
14041;BME280;7095;51.388;6.196;2023-05-20T10:42:06;53284.41;;;-145.32;62.17
14041;BME280;7095;51.388;6.196;2023-05-20T10:44:41;53310.25;;;-145.32;61.82
14041;BME280;7095;51.388;6.196;2023-05-20T10:47:10;53288.38;;;-145.32;64.46
14041;BME280;7095;51.388;6.196;2023-05-20T10:49:43;53308.25;;;-145.32;62.43
14041;BME280;7095;51.388;6.196;2023-05-20T10:52:15;53304.28;;;-145.32;61.93
14041;BME280;7095;51.388;6.196;2023-05-20T10:54:45;53294.34;;;-145.32;62.15
14041;BME280;7095;51.388;6.196;2023-05-20T10:57:17;53292.34;;;-145.32;62.26
14041;BME280;7095;51.388;6.196;2023-05-20T10:59:47;53302.28;;;-145.32;62.02
14041;BME280;7095;51.388;6.196;2023-05-20T11:02:18;53260.53;;;-145.32;62.50
14041;BME280;7095;51.388;6.196;2023-05-20T11:04:49;53300.31;;;-145.32;62.05
14041;BME280;7095;51.388;6.196;2023-05-20T11:07:25;53288.38;;;-145.32;58.13
14041;BME280;7095;51.388;6.196;2023-05-20T11:09:55;53260.53;;;-145.32;60.58
14041;BME280;7095;51.388;6.196;2023-05-20T11:12:24;53284.41;;;-145.32;59.92
14041;BME280;7095;51.388;6.196;2023-05-20T11:14:53;53254.59;;;-145.32;59.15
14041;BME280;7095;51.388;6.196;2023-05-20T11:17:22;53280.41;;;-145.32;58.99
14041;BME280;7095;51.388;6.196;2023-05-20T11:19:51;53242.66;;;-145.32;59.18
14041;BME280;7095;51.388;6.196;2023-05-20T11:22:20;53226.75;;;-145.32;58.24
14041;BME280;7095;51.388;6.196;2023-05-20T11:24:50;53268.50;;;-145.32;57.86
14041;BME280;7095;51.388;6.196;2023-05-20T11:27:18;53248.63;;;-145.32;56.75
14041;BME280;7095;51.388;6.196;2023-05-20T11:29:49;53274.47;;;-145.32;57.19
14041;BME280;7095;51.388;6.196;2023-05-20T11:32:18;53250.59;;;-145.32;57.05
14041;BME280;7095;51.388;6.196;2023-05-20T11:34:50;53232.72;;;-145.32;55.67
14041;BME280;7095;51.388;6.196;2023-05-20T11:37:19;53266.50;;;-145.32;55.48
14041;BME280;7095;51.388;6.196;2023-05-20T11:40:03;53206.88;;;-145.32;53.59
14041;BME280;7095;51.388;6.196;2023-05-20T11:42:35;53232.72;;;-145.32;55.44
14041;BME280;7095;51.388;6.196;2023-05-20T11:45:05;53248.63;;;-145.32;55.86
14041;BME280;7095;51.388;6.196;2023-05-20T11:47:33;53214.81;;;-145.32;55.48
14041;BME280;7095;51.388;6.196;2023-05-20T11:50:02;53230.72;;;-145.32;53.85
14041;BME280;7095;51.388;6.196;2023-05-20T11:52:32;53230.72;;;-145.32;54.12
14041;BME280;7095;51.388;6.196;2023-05-20T11:55:09;53228.75;;;-145.32;51.98
14041;BME280;7095;51.388;6.196;2023-05-20T11:57:38;53214.81;;;-145.32;51.82
14041;BME280;7095;51.388;6.196;2023-05-20T12:00:08;53179.03;;;-145.32;51.31
14041;BME280;7095;51.388;6.196;2023-05-20T12:02:37;53185.00;;;-145.32;49.85
14041;BME280;7095;51.388;6.196;2023-05-20T12:05:06;53173.06;;;-145.32;49.43
14041;BME280;7095;51.388;6.196;2023-05-20T12:07:35;53220.78;;;-145.32;49.18
14041;BME280;7095;51.388;6.196;2023-05-20T12:10:07;53165.13;;;-145.32;48.23
14041;BME280;7095;51.388;6.196;2023-05-20T12:12:36;53200.91;;;-145.32;49.48
14041;BME280;7095;51.388;6.196;2023-05-20T12:15:05;53212.84;;;-145.32;49.32
14041;BME280;7095;51.388;6.196;2023-05-20T12:17:44;53204.88;;;-145.32;48.09
14041;BME280;7095;51.388;6.196;2023-05-20T12:20:15;53190.97;;;-145.32;48.75
14041;BME280;7095;51.388;6.196;2023-05-20T12:22:44;53194.94;;;-145.32;49.04
14041;BME280;7095;51.388;6.196;2023-05-20T12:25:15;53204.88;;;-145.32;49.43
14041;BME280;7095;51.388;6.196;2023-05-20T12:27:46;53171.09;;;-145.32;49.28
14041;BME280;7095;51.388;6.196;2023-05-20T12:30:17;53198.91;;;-145.32;48.53
14041;BME280;7095;51.388;6.196;2023-05-20T12:32:47;53185.00;;;-145.32;48.20
14041;BME280;7095;51.388;6.196;2023-05-20T12:35:24;53194.94;;;-145.32;46.34
14041;BME280;7095;51.388;6.196;2023-05-20T12:37:53;53175.06;;;-145.32;47.72
14041;BME280;7095;51.388;6.196;2023-05-20T12:40:23;53230.72;;;-145.32;47.78
14041;BME280;7095;51.388;6.196;2023-05-20T12:42:52;53220.78;;;-145.32;48.59
14041;BME280;7095;51.388;6.196;2023-05-20T12:45:21;53212.84;;;-145.32;50.11
14041;BME280;7095;51.388;6.196;2023-05-20T12:47:49;53202.91;;;-145.32;49.98
14041;BME280;7095;51.388;6.196;2023-05-20T12:50:18;53202.91;;;-145.32;50.36
14041;BME280;7095;51.388;6.196;2023-05-20T12:52:47;53214.81;;;-145.32;50.54
14041;BME280;7095;51.388;6.196;2023-05-20T12:55:16;53125.38;;;-145.32;50.33
14041;BME280;7095;51.388;6.196;2023-05-20T12:57:46;53133.31;;;-145.32;49.70
14041;BME280;7095;51.388;6.196;2023-05-20T13:00:15;53212.84;;;-145.32;48.36